Accueil
METAR-TAF:

METAR-TAF

Aéroports :

Aéroport de Londres-City

Londres, Angleterre

latitude: 51-30N, longitude: 000-03E, altitude: 5 m

Observation

Le bulletin a été fait il y a 10 minutes, à 14:20 UTC
Vent 12 kt de ouest, variant entre sud-ouest et ouest/nord-ouest
Température 24°C
Humidité 47%
Pression 1024 hPa
Visibilité 10 km ou plus
Nuages épars à une hauteur de 4700 ft

METAR: EGLC 221420Z AUTO 26012KT 220V290 9999 SCT047 24/12 Q1024

Heure: 15:30 (14:30 UTC)

Prévision

Le bulletin a été fait il y a 3 heures et 30 minutes, à 11:00 UTC
Prévision valable du 22 à 12 UTC au 22 à 21 UTC
Vent 9 kt de sud-ouest
Visibilité 10 km ou plus
Quelques nuages à une hauteur de 4500 ft

TAF: EGLC 221100Z 2212/2221 23009KT 9999 FEW045

Observations et prévisions météorologiques de plus de 4000 aéroports (messages METAR et TAF).

Les stations disponibles sont représentées par des disques jaunes et rouges sur la carte.

Passer la souris dessus pour voir le nom de la station.

Cliquer dessus pour voir les observations et prévisions météorologiques.

Pour changer de carte: cliquez sur les boutons verts avec une croix noire pour zoomer, sur le bouton vert avec un tiret pour effectuer un zoom arrière, ou sur les flèches vertes pour les cartes adjacentes.


METAR-TAF: